sensor_id;sensor_type;location;lat;lon;timestamp;temperature;humidity
5128;DHT22;2582;48.770;9.190;2024-02-23T00:01:15;8.00;99.90
5128;DHT22;2582;48.770;9.190;2024-02-23T00:03:41;8.00;99.90
5128;DHT22;2582;48.770;9.190;2024-02-23T00:06:06;8.00;99.90
5128;DHT22;2582;48.770;9.190;2024-02-23T00:08:32;7.90;99.90
5128;DHT22;2582;48.770;9.190;2024-02-23T00:10:57;7.90;99.90
5128;DHT22;2582;48.770;9.190;2024-02-23T00:13:23;7.90;99.90
5128;DHT22;2582;48.770;9.190;2024-02-23T00:15:49;8.10;99.90
5128;DHT22;2582;48.770;9.190;2024-02-23T00:18:14;8.20;99.90
5128;DHT22;2582;48.770;9.190;2024-02-23T00:20:41;8.20;99.90
5128;DHT22;2582;48.770;9.190;2024-02-23T00:23:07;8.20;99.90
5128;DHT22;2582;48.770;9.190;2024-02-23T00:25:32;8.10;99.90
5128;DHT22;2582;48.770;9.190;2024-02-23T00:27:58;8.20;99.90
5128;DHT22;2582;48.770;9.190;2024-02-23T00:30:24;8.30;99.90
5128;DHT22;2582;48.770;9.190;2024-02-23T00:32:49;8.20;99.90
5128;DHT22;2582;48.770;9.190;2024-02-23T00:35:15;8.20;99.90
5128;DHT22;2582;48.770;9.190;2024-02-23T00:37:40;8.10;99.90
5128;DHT22;2582;48.770;9.190;2024-02-23T00:40:06;8.10;99.90
5128;DHT22;2582;48.770;9.190;2024-02-23T00:42:32;8.30;99.90
5128;DHT22;2582;48.770;9.190;2024-02-23T00:44:58;8.40;99.90
5128;DHT22;2582;48.770;9.190;2024-02-23T00:47:23;8.40;99.90
5128;DHT22;2582;48.770;9.190;2024-02-23T00:49:49;8.30;99.90
5128;DHT22;2582;48.770;9.190;2024-02-23T00:52:15;8.40;99.90
5128;DHT22;2582;48.770;9.190;2024-02-23T00:54:41;8.30;99.90
5128;DHT22;2582;48.770;9.190;2024-02-23T00:57:07;8.30;99.90
5128;DHT22;2582;48.770;9.190;2024-02-23T00:59:32;8.30;99.90
5128;DHT22;2582;48.770;9.190;2024-02-23T01:01:58;8.50;99.90
5128;DHT22;2582;48.770;9.190;2024-02-23T01:04:23;8.30;99.90
5128;DHT22;2582;48.770;9.190;2024-02-23T01:06:49;8.30;99.90
5128;DHT22;2582;48.770;9.190;2024-02-23T01:09:14;8.40;99.90
5128;DHT22;2582;48.770;9.190;2024-02-23T01:11:42;8.20;99.90
5128;DHT22;2582;48.770;9.190;2024-02-23T01:14:07;8.30;99.90
5128;DHT22;2582;48.770;9.190;2024-02-23T01:16:33;8.30;99.90
5128;DHT22;2582;48.770;9.190;2024-02-23T01:18:59;8.30;99.90
5128;DHT22;2582;48.770;9.190;2024-02-23T01:21:24;8.40;99.90
5128;DHT22;2582;48.770;9.190;2024-02-23T01:23:50;8.40;99.90
5128;DHT22;2582;48.770;9.190;2024-02-23T01:26:15;8.30;99.90
5128;DHT22;2582;48.770;9.190;2024-02-23T01:28:41;8.40;99.90
5128;DHT22;2582;48.770;9.190;2024-02-23T01:31:11;8.50;99.90
5128;DHT22;2582;48.770;9.190;2024-02-23T01:33:37;8.50;99.90
5128;DHT22;2582;48.770;9.190;2024-02-23T01:36:07;8.50;99.90
5128;DHT22;2582;48.770;9.190;2024-02-23T01:38:35;8.50;99.90
5128;DHT22;2582;48.770;9.190;2024-02-23T01:41:01;8.40;99.90
5128;DHT22;2582;48.770;9.190;2024-02-23T01:43:27;8.30;99.90
5128;DHT22;2582;48.770;9.190;2024-02-23T01:45:53;8.30;99.90
5128;DHT22;2582;48.770;9.190;2024-02-23T01:48:19;8.30;99.90
5128;DHT22;2582;48.770;9.190;2024-02-23T01:50:45;8.30;99.90
5128;DHT22;2582;48.770;9.190;2024-02-23T01:53:12;8.60;99.90
5128;DHT22;2582;48.770;9.190;2024-02-23T01:55:40;8.60;99.90
5128;DHT22;2582;48.770;9.190;2024-02-23T01:58:07;8.70;99.90
5128;DHT22;2582;48.770;9.190;2024-02-23T02:00:35;8.40;99.90
5128;DHT22;2582;48.770;9.190;2024-02-23T02:03:00;8.40;99.90
5128;DHT22;2582;48.770;9.190;2024-02-23T02:05:26;8.40;99.90
5128;DHT22;2582;48.770;9.190;2024-02-23T02:07:53;8.50;99.90
5128;DHT22;2582;48.770;9.190;2024-02-23T02:10:24;8.60;99.90
5128;DHT22;2582;48.770;9.190;2024-02-23T02:12:50;8.40;99.90
5128;DHT22;2582;48.770;9.190;2024-02-23T02:15:16;8.30;99.90
5128;DHT22;2582;48.770;9.190;2024-02-23T02:17:41;8.30;99.90
5128;DHT22;2582;48.770;9.190;2024-02-23T02:20:11;8.40;99.90
5128;DHT22;2582;48.770;9.190;2024-02-23T02:22:37;8.50;99.90
5128;DHT22;2582;48.770;9.190;2024-02-23T02:25:03;8.60;99.90
5128;DHT22;2582;48.770;9.190;2024-02-23T02:27:29;8.60;99.90
5128;DHT22;2582;48.770;9.190;2024-02-23T02:29:55;8.50;99.90
5128;DHT22;2582;48.770;9.190;2024-02-23T02:32:20;8.40;99.90
5128;DHT22;2582;48.770;9.190;2024-02-23T02:34:46;8.50;99.90
5128;DHT22;2582;48.770;9.190;2024-02-23T02:37:12;8.60;99.90
5128;DHT22;2582;48.770;9.190;2024-02-23T02:39:37;8.50;99.90
5128;DHT22;2582;48.770;9.190;2024-02-23T02:42:03;8.30;99.90
5128;DHT22;2582;48.770;9.190;2024-02-23T02:44:29;8.20;99.90
5128;DHT22;2582;48.770;9.190;2024-02-23T02:46:56;8.20;99.90
5128;DHT22;2582;48.770;9.190;2024-02-23T02:49:22;8.10;99.90
5128;DHT22;2582;48.770;9.190;2024-02-23T02:51:47;8.10;99.90
5128;DHT22;2582;48.770;9.190;2024-02-23T02:54:13;8.20;99.90
5128;DHT22;2582;48.770;9.190;2024-02-23T02:56:47;8.00;99.90
5128;DHT22;2582;48.770;9.190;2024-02-23T02:59:12;8.10;99.90
5128;DHT22;2582;48.770;9.190;2024-02-23T03:01:39;8.20;99.90
5128;DHT22;2582;48.770;9.190;2024-02-23T03:04:05;8.20;99.90
5128;DHT22;2582;48.770;9.190;2024-02-23T03:06:31;8.30;99.90
5128;DHT22;2582;48.770;9.190;2024-02-23T03:08:56;8.00;99.90
5128;DHT22;2582;48.770;9.190;2024-02-23T03:11:22;7.80;99.90
5128;DHT22;2582;48.770;9.190;2024-02-23T03:13:47;7.80;99.90
5128;DHT22;2582;48.770;9.190;2024-02-23T03:16:20;7.80;99.90
5128;DHT22;2582;48.770;9.190;2024-02-23T03:18:46;7.70;99.90
5128;DHT22;2582;48.770;9.190;2024-02-23T03:21:12;7.60;99.90
5128;DHT22;2582;48.770;9.190;2024-02-23T03:23:39;7.60;99.90
5128;DHT22;2582;48.770;9.190;2024-02-23T03:26:07;7.60;99.90
5128;DHT22;2582;48.770;9.190;2024-02-23T03:28:33;7.70;99.90
5128;DHT22;2582;48.770;9.190;2024-02-23T03:30:59;7.80;99.90
5128;DHT22;2582;48.770;9.190;2024-02-23T03:33:25;8.00;99.90
5128;DHT22;2582;48.770;9.190;2024-02-23T03:35:51;7.80;99.90
5128;DHT22;2582;48.770;9.190;2024-02-23T03:38:16;7.90;99.90
5128;DHT22;2582;48.770;9.190;2024-02-23T03:40:42;8.00;99.90
5128;DHT22;2582;48.770;9.190;2024-02-23T03:43:08;8.10;99.90
5128;DHT22;2582;48.770;9.190;2024-02-23T03:45:33;8.10;99.90
5128;DHT22;2582;48.770;9.190;2024-02-23T03:47:59;8.00;99.90
5128;DHT22;2582;48.770;9.190;2024-02-23T03:50:25;8.10;99.90
5128;DHT22;2582;48.770;9.190;2024-02-23T03:52:51;8.10;99.90
5128;DHT22;2582;48.770;9.190;2024-02-23T03:55:16;8.30;99.90
5128;DHT22;2582;48.770;9.190;2024-02-23T03:57:42;8.20;99.90
5128;DHT22;2582;48.770;9.190;2024-02-23T04:00:08;7.90;99.90
5128;DHT22;2582;48.770;9.190;2024-02-23T04:02:34;7.90;99.90
5128;DHT22;2582;48.770;9.190;2024-02-23T04:05:00;7.90;99.90
5128;DHT22;2582;48.770;9.190;2024-02-23T04:07:25;7.90;99.90
5128;DHT22;2582;48.770;9.190;2024-02-23T04:09:51;8.00;99.90
5128;DHT22;2582;48.770;9.190;2024-02-23T04:12:21;8.10;99.90
5128;DHT22;2582;48.770;9.190;2024-02-23T04:14:47;8.20;99.90
5128;DHT22;2582;48.770;9.190;2024-02-23T04:17:13;8.10;99.90
5128;DHT22;2582;48.770;9.190;2024-02-23T04:19:40;8.10;99.90
5128;DHT22;2582;48.770;9.190;2024-02-23T04:22:06;8.20;99.90
5128;DHT22;2582;48.770;9.190;2024-02-23T04:24:38;8.20;99.90
5128;DHT22;2582;48.770;9.190;2024-02-23T04:27:07;8.10;99.90
5128;DHT22;2582;48.770;9.190;2024-02-23T04:29:33;8.20;99.90
5128;DHT22;2582;48.770;9.190;2024-02-23T04:32:02;8.20;99.90
5128;DHT22;2582;48.770;9.190;2024-02-23T04:34:28;8.00;99.90
5128;DHT22;2582;48.770;9.190;2024-02-23T04:36:54;8.00;99.90
5128;DHT22;2582;48.770;9.190;2024-02-23T04:39:20;7.90;99.90
5128;DHT22;2582;48.770;9.190;2024-02-23T04:41:46;7.90;99.90
5128;DHT22;2582;48.770;9.190;2024-02-23T04:44:11;7.80;99.90
5128;DHT22;2582;48.770;9.190;2024-02-23T04:46:37;7.80;99.90
5128;DHT22;2582;48.770;9.190;2024-02-23T04:49:02;7.70;99.90
5128;DHT22;2582;48.770;9.190;2024-02-23T04:51:28;7.60;99.90
5128;DHT22;2582;48.770;9.190;2024-02-23T04:53:54;7.40;99.90
5128;DHT22;2582;48.770;9.190;2024-02-23T04:56:20;7.50;99.90
5128;DHT22;2582;48.770;9.190;2024-02-23T04:58:46;7.70;99.90
5128;DHT22;2582;48.770;9.190;2024-02-23T05:01:12;7.80;99.90
5128;DHT22;2582;48.770;9.190;2024-02-23T05:03:38;7.80;99.90
5128;DHT22;2582;48.770;9.190;2024-02-23T05:06:04;7.80;99.90
5128;DHT22;2582;48.770;9.190;2024-02-23T05:08:30;7.90;99.90
5128;DHT22;2582;48.770;9.190;2024-02-23T05:10:58;7.60;99.90
5128;DHT22;2582;48.770;9.190;2024-02-23T05:13:24;7.60;99.90
5128;DHT22;2582;48.770;9.190;2024-02-23T05:15:50;7.60;99.90
5128;DHT22;2582;48.770;9.190;2024-02-23T05:18:16;7.60;99.90
5128;DHT22;2582;48.770;9.190;2024-02-23T05:20:41;7.50;99.90
5128;DHT22;2582;48.770;9.190;2024-02-23T05:25:36;7.30;99.90
5128;DHT22;2582;48.770;9.190;2024-02-23T05:28:02;7.30;99.90
5128;DHT22;2582;48.770;9.190;2024-02-23T05:30:28;7.40;99.90
5128;DHT22;2582;48.770;9.190;2024-02-23T05:32:56;7.40;99.90
5128;DHT22;2582;48.770;9.190;2024-02-23T05:35:23;7.40;99.90
5128;DHT22;2582;48.770;9.190;2024-02-23T05:37:49;7.30;99.90
5128;DHT22;2582;48.770;9.190;2024-02-23T05:40:15;7.40;99.90
5128;DHT22;2582;48.770;9.190;2024-02-23T05:42:41;7.30;99.90
5128;DHT22;2582;48.770;9.190;2024-02-23T05:45:07;7.30;99.90
5128;DHT22;2582;48.770;9.190;2024-02-23T05:47:37;7.30;99.90
5128;DHT22;2582;48.770;9.190;2024-02-23T05:50:12;7.30;99.90
5128;DHT22;2582;48.770;9.190;2024-02-23T05:52:38;7.20;99.90
5128;DHT22;2582;48.770;9.190;2024-02-23T05:55:04;7.10;99.90
5128;DHT22;2582;48.770;9.190;2024-02-23T05:57:30;7.10;99.90
5128;DHT22;2582;48.770;9.190;2024-02-23T05:59:56;7.10;99.90
5128;DHT22;2582;48.770;9.190;2024-02-23T06:02:22;7.00;99.90
5128;DHT22;2582;48.770;9.190;2024-02-23T06:04:48;6.90;99.90
5128;DHT22;2582;48.770;9.190;2024-02-23T06:07:14;6.80;99.90
5128;DHT22;2582;48.770;9.190;2024-02-23T06:09:43;6.70;99.90
5128;DHT22;2582;48.770;9.190;2024-02-23T06:12:09;6.50;99.90
5128;DHT22;2582;48.770;9.190;2024-02-23T06:14:35;6.50;99.90
5128;DHT22;2582;48.770;9.190;2024-02-23T06:17:01;6.50;99.90
5128;DHT22;2582;48.770;9.190;2024-02-23T06:19:28;6.40;99.90
5128;DHT22;2582;48.770;9.190;2024-02-23T06:21:54;6.30;99.90
5128;DHT22;2582;48.770;9.190;2024-02-23T06:24:19;6.40;99.90
5128;DHT22;2582;48.770;9.190;2024-02-23T06:26:45;6.50;99.90
5128;DHT22;2582;48.770;9.190;2024-02-23T06:29:12;6.50;99.90
5128;DHT22;2582;48.770;9.190;2024-02-23T06:31:39;6.50;99.90
5128;DHT22;2582;48.770;9.190;2024-02-23T06:34:05;6.50;99.90
5128;DHT22;2582;48.770;9.190;2024-02-23T06:36:31;6.40;99.90
5128;DHT22;2582;48.770;9.190;2024-02-23T06:38:56;6.40;99.90
5128;DHT22;2582;48.770;9.190;2024-02-23T06:41:22;6.40;99.90
5128;DHT22;2582;48.770;9.190;2024-02-23T06:43:48;6.40;99.90
5128;DHT22;2582;48.770;9.190;2024-02-23T06:46:13;6.30;99.90
5128;DHT22;2582;48.770;9.190;2024-02-23T06:48:39;6.30;99.90
5128;DHT22;2582;48.770;9.190;2024-02-23T06:51:05;6.30;99.90
5128;DHT22;2582;48.770;9.190;2024-02-23T06:53:30;6.30;99.90
5128;DHT22;2582;48.770;9.190;2024-02-23T06:55:56;6.30;99.90
5128;DHT22;2582;48.770;9.190;2024-02-23T06:58:22;6.30;99.90
5128;DHT22;2582;48.770;9.190;2024-02-23T07:00:47;6.40;99.90
5128;DHT22;2582;48.770;9.190;2024-02-23T07:03:13;6.60;99.90
5128;DHT22;2582;48.770;9.190;2024-02-23T07:05:40;6.70;99.90
5128;DHT22;2582;48.770;9.190;2024-02-23T07:08:07;6.60;99.90
5128;DHT22;2582;48.770;9.190;2024-02-23T07:10:33;6.80;99.90
5128;DHT22;2582;48.770;9.190;2024-02-23T07:12:58;7.00;99.90
5128;DHT22;2582;48.770;9.190;2024-02-23T07:15:24;7.00;99.90
5128;DHT22;2582;48.770;9.190;2024-02-23T07:17:54;7.20;99.90
5128;DHT22;2582;48.770;9.190;2024-02-23T07:20:19;7.20;99.90
5128;DHT22;2582;48.770;9.190;2024-02-23T07:22:46;7.30;99.90
5128;DHT22;2582;48.770;9.190;2024-02-23T07:25:12;7.30;99.90
5128;DHT22;2582;48.770;9.190;2024-02-23T07:27:40;7.40;99.90
5128;DHT22;2582;48.770;9.190;2024-02-23T07:30:06;7.50;99.90
5128;DHT22;2582;48.770;9.190;2024-02-23T07:32:32;7.50;99.90
5128;DHT22;2582;48.770;9.190;2024-02-23T07:34:57;7.70;99.90
5128;DHT22;2582;48.770;9.190;2024-02-23T07:37:26;7.90;99.90
5128;DHT22;2582;48.770;9.190;2024-02-23T07:39:52;7.90;99.90
5128;DHT22;2582;48.770;9.190;2024-02-23T07:42:18;8.00;99.90
5128;DHT22;2582;48.770;9.190;2024-02-23T07:44:44;8.10;99.90
5128;DHT22;2582;48.770;9.190;2024-02-23T07:47:10;8.00;99.90
5128;DHT22;2582;48.770;9.190;2024-02-23T07:49:36;8.00;99.90
5128;DHT22;2582;48.770;9.190;2024-02-23T07:52:03;8.10;99.90
5128;DHT22;2582;48.770;9.190;2024-02-23T07:54:28;8.00;99.90
5128;DHT22;2582;48.770;9.190;2024-02-23T07:56:54;8.00;99.90
5128;DHT22;2582;48.770;9.190;2024-02-23T07:59:20;7.90;99.90
5128;DHT22;2582;48.770;9.190;2024-02-23T08:01:45;7.80;99.90
5128;DHT22;2582;48.770;9.190;2024-02-23T08:04:11;7.60;99.90
5128;DHT22;2582;48.770;9.190;2024-02-23T08:06:39;7.70;99.90
5128;DHT22;2582;48.770;9.190;2024-02-23T08:09:04;7.70;99.90
5128;DHT22;2582;48.770;9.190;2024-02-23T08:11:30;7.90;99.90
5128;DHT22;2582;48.770;9.190;2024-02-23T08:13:55;7.80;99.90
5128;DHT22;2582;48.770;9.190;2024-02-23T08:16:21;7.80;99.90
5128;DHT22;2582;48.770;9.190;2024-02-23T08:18:46;7.80;99.90
5128;DHT22;2582;48.770;9.190;2024-02-23T08:21:12;7.70;99.90
5128;DHT22;2582;48.770;9.190;2024-02-23T08:23:38;7.80;99.90
5128;DHT22;2582;48.770;9.190;2024-02-23T08:26:03;8.00;99.90
5128;DHT22;2582;48.770;9.190;2024-02-23T08:28:29;7.80;99.90
5128;DHT22;2582;48.770;9.190;2024-02-23T08:30:55;7.50;99.90
5128;DHT22;2582;48.770;9.190;2024-02-23T08:33:20;7.70;99.90
5128;DHT22;2582;48.770;9.190;2024-02-23T08:35:46;7.70;99.90
5128;DHT22;2582;48.770;9.190;2024-02-23T08:38:14;7.80;99.90
5128;DHT22;2582;48.770;9.190;2024-02-23T08:40:39;7.80;99.90
5128;DHT22;2582;48.770;9.190;2024-02-23T08:43:05;7.70;99.90
5128;DHT22;2582;48.770;9.190;2024-02-23T08:45:31;7.60;99.90
5128;DHT22;2582;48.770;9.190;2024-02-23T08:47:56;7.60;99.90
5128;DHT22;2582;48.770;9.190;2024-02-23T08:50:22;7.60;99.90
5128;DHT22;2582;48.770;9.190;2024-02-23T08:52:48;7.80;99.90
5128;DHT22;2582;48.770;9.190;2024-02-23T08:55:13;7.90;99.90
5128;DHT22;2582;48.770;9.190;2024-02-23T08:57:39;8.00;99.90
5128;DHT22;2582;48.770;9.190;2024-02-23T09:00:05;7.90;99.90
5128;DHT22;2582;48.770;9.190;2024-02-23T09:02:31;7.70;99.90
5128;DHT22;2582;48.770;9.190;2024-02-23T09:04:58;7.70;99.90
5128;DHT22;2582;48.770;9.190;2024-02-23T09:07:23;7.70;99.90
5128;DHT22;2582;48.770;9.190;2024-02-23T09:09:49;7.90;99.90
5128;DHT22;2582;48.770;9.190;2024-02-23T09:12:15;7.80;99.90
5128;DHT22;2582;48.770;9.190;2024-02-23T09:14:42;7.70;99.90
5128;DHT22;2582;48.770;9.190;2024-02-23T09:17:09;7.70;99.90
5128;DHT22;2582;48.770;9.190;2024-02-23T09:19:35;7.70;99.90
5128;DHT22;2582;48.770;9.190;2024-02-23T09:22:02;7.60;99.90
5128;DHT22;2582;48.770;9.190;2024-02-23T09:24:27;7.70;99.90
5128;DHT22;2582;48.770;9.190;2024-02-23T09:26:53;7.80;99.90
5128;DHT22;2582;48.770;9.190;2024-02-23T09:29:19;7.60;99.90
5128;DHT22;2582;48.770;9.190;2024-02-23T09:31:44;7.70;99.90
5128;DHT22;2582;48.770;9.190;2024-02-23T09:34:10;7.90;99.90
5128;DHT22;2582;48.770;9.190;2024-02-23T09:36:36;8.00;99.90
5128;DHT22;2582;48.770;9.190;2024-02-23T09:39:01;8.30;99.90
5128;DHT22;2582;48.770;9.190;2024-02-23T09:41:29;8.30;99.90
5128;DHT22;2582;48.770;9.190;2024-02-23T09:43:58;8.50;99.90
5128;DHT22;2582;48.770;9.190;2024-02-23T09:46:25;8.50;99.90
5128;DHT22;2582;48.770;9.190;2024-02-23T09:48:51;8.30;99.90
5128;DHT22;2582;48.770;9.190;2024-02-23T09:51:17;8.40;99.90
5128;DHT22;2582;48.770;9.190;2024-02-23T09:53:43;8.60;99.90
5128;DHT22;2582;48.770;9.190;2024-02-23T09:56:10;8.40;99.90
5128;DHT22;2582;48.770;9.190;2024-02-23T09:58:36;8.40;99.90
5128;DHT22;2582;48.770;9.190;2024-02-23T10:01:03;8.40;99.90
5128;DHT22;2582;48.770;9.190;2024-02-23T10:03:29;8.60;99.90
5128;DHT22;2582;48.770;9.190;2024-02-23T10:05:56;8.60;99.90
5128;DHT22;2582;48.770;9.190;2024-02-23T10:08:22;8.50;99.90
5128;DHT22;2582;48.770;9.190;2024-02-23T10:10:48;8.70;99.90
5128;DHT22;2582;48.770;9.190;2024-02-23T10:13:27;8.80;99.90
5128;DHT22;2582;48.770;9.190;2024-02-23T10:15:54;8.90;99.90
5128;DHT22;2582;48.770;9.190;2024-02-23T10:18:20;8.70;99.90
5128;DHT22;2582;48.770;9.190;2024-02-23T10:20:47;8.60;99.90
5128;DHT22;2582;48.770;9.190;2024-02-23T10:23:13;8.60;99.90
5128;DHT22;2582;48.770;9.190;2024-02-23T10:25:39;8.70;99.90
5128;DHT22;2582;48.770;9.190;2024-02-23T10:28:06;8.80;99.90
5128;DHT22;2582;48.770;9.190;2024-02-23T10:30:32;9.00;99.90
5128;DHT22;2582;48.770;9.190;2024-02-23T10:32:58;9.00;99.90
5128;DHT22;2582;48.770;9.190;2024-02-23T10:35:25;9.10;99.90
5128;DHT22;2582;48.770;9.190;2024-02-23T10:37:53;9.10;99.90
5128;DHT22;2582;48.770;9.190;2024-02-23T10:40:20;9.10;99.90
5128;DHT22;2582;48.770;9.190;2024-02-23T10:42:46;9.30;99.90
5128;DHT22;2582;48.770;9.190;2024-02-23T10:45:20;9.50;99.90
5128;DHT22;2582;48.770;9.190;2024-02-23T10:47:48;9.60;99.90
5128;DHT22;2582;48.770;9.190;2024-02-23T10:50:14;9.50;99.90
5128;DHT22;2582;48.770;9.190;2024-02-23T10:52:42;9.60;99.90
5128;DHT22;2582;48.770;9.190;2024-02-23T10:55:11;9.60;99.90
5128;DHT22;2582;48.770;9.190;2024-02-23T10:57:36;9.60;99.90
5128;DHT22;2582;48.770;9.190;2024-02-23T11:00:03;9.50;99.90
5128;DHT22;2582;48.770;9.190;2024-02-23T11:02:46;9.50;99.90
5128;DHT22;2582;48.770;9.190;2024-02-23T11:05:15;9.60;99.90
5128;DHT22;2582;48.770;9.190;2024-02-23T11:07:41;10.10;99.90
5128;DHT22;2582;48.770;9.190;2024-02-23T11:10:07;10.30;99.90
5128;DHT22;2582;48.770;9.190;2024-02-23T11:12:34;10.40;99.90
5128;DHT22;2582;48.770;9.190;2024-02-23T11:15:01;10.20;99.90
5128;DHT22;2582;48.770;9.190;2024-02-23T11:17:28;10.40;99.90
5128;DHT22;2582;48.770;9.190;2024-02-23T11:19:55;10.30;99.90
5128;DHT22;2582;48.770;9.190;2024-02-23T11:22:31;10.30;99.90
5128;DHT22;2582;48.770;9.190;2024-02-23T11:27:34;10.20;99.90
5128;DHT22;2582;48.770;9.190;2024-02-23T11:30:02;10.10;99.90
5128;DHT22;2582;48.770;9.190;2024-02-23T11:32:38;10.10;99.90
5128;DHT22;2582;48.770;9.190;2024-02-23T11:35:06;10.10;99.90
5128;DHT22;2582;48.770;9.190;2024-02-23T11:37:32;10.10;99.90
5128;DHT22;2582;48.770;9.190;2024-02-23T11:40:02;10.30;99.90
5128;DHT22;2582;48.770;9.190;2024-02-23T11:42:31;10.20;99.90
5128;DHT22;2582;48.770;9.190;2024-02-23T11:44:57;10.40;99.90
5128;DHT22;2582;48.770;9.190;2024-02-23T11:47:24;10.50;99.90
5128;DHT22;2582;48.770;9.190;2024-02-23T11:49:50;10.50;99.90
5128;DHT22;2582;48.770;9.190;2024-02-23T11:52:15;10.70;99.90
5128;DHT22;2582;48.770;9.190;2024-02-23T11:54:42;10.50;99.90
5128;DHT22;2582;48.770;9.190;2024-02-23T11:57:08;10.60;99.90
5128;DHT22;2582;48.770;9.190;2024-02-23T11:59:33;10.50;99.90
5128;DHT22;2582;48.770;9.190;2024-02-23T12:01:59;10.40;99.90
5128;DHT22;2582;48.770;9.190;2024-02-23T12:04:27;10.20;99.90
5128;DHT22;2582;48.770;9.190;2024-02-23T12:06:53;10.30;99.90
5128;DHT22;2582;48.770;9.190;2024-02-23T12:09:18;10.30;99.90
5128;DHT22;2582;48.770;9.190;2024-02-23T12:11:44;10.30;99.90
5128;DHT22;2582;48.770;9.190;2024-02-23T12:14:10;10.40;99.90
5128;DHT22;2582;48.770;9.190;2024-02-23T12:16:36;10.40;99.90
5128;DHT22;2582;48.770;9.190;2024-02-23T12:19:02;10.60;99.90
5128;DHT22;2582;48.770;9.190;2024-02-23T12:21:28;10.70;99.90
5128;DHT22;2582;48.770;9.190;2024-02-23T12:23:54;10.80;99.90
5128;DHT22;2582;48.770;9.190;2024-02-23T12:26:20;10.80;99.90
5128;DHT22;2582;48.770;9.190;2024-02-23T12:28:46;10.70;99.90
5128;DHT22;2582;48.770;9.190;2024-02-23T12:31:12;10.90;99.90
5128;DHT22;2582;48.770;9.190;2024-02-23T12:33:38;10.60;99.90
5128;DHT22;2582;48.770;9.190;2024-02-23T12:36:08;10.90;99.90
5128;DHT22;2582;48.770;9.190;2024-02-23T12:38:35;11.30;99.90
5128;DHT22;2582;48.770;9.190;2024-02-23T12:41:01;11.10;99.90
5128;DHT22;2582;48.770;9.190;2024-02-23T12:43:28;10.90;99.90
5128;DHT22;2582;48.770;9.190;2024-02-23T12:45:54;10.90;99.90
5128;DHT22;2582;48.770;9.190;2024-02-23T12:48:20;10.90;99.90
5128;DHT22;2582;48.770;9.190;2024-02-23T12:50:47;10.80;99.90
5128;DHT22;2582;48.770;9.190;2024-02-23T12:53:32;10.70;99.90
5128;DHT22;2582;48.770;9.190;2024-02-23T12:56:02;10.40;99.90
5128;DHT22;2582;48.770;9.190;2024-02-23T12:58:28;10.30;99.90
5128;DHT22;2582;48.770;9.190;2024-02-23T13:00:53;10.30;99.90
5128;DHT22;2582;48.770;9.190;2024-02-23T13:03:19;10.60;99.90
5128;DHT22;2582;48.770;9.190;2024-02-23T13:05:45;10.70;99.90
5128;DHT22;2582;48.770;9.190;2024-02-23T13:08:11;10.70;99.90
5128;DHT22;2582;48.770;9.190;2024-02-23T13:10:37;10.40;99.90
5128;DHT22;2582;48.770;9.190;2024-02-23T13:13:03;10.30;99.90
5128;DHT22;2582;48.770;9.190;2024-02-23T13:15:28;10.40;99.90
5128;DHT22;2582;48.770;9.190;2024-02-23T13:17:54;10.50;99.90
5128;DHT22;2582;48.770;9.190;2024-02-23T13:20:19;11.00;99.90
5128;DHT22;2582;48.770;9.190;2024-02-23T13:22:45;11.00;99.90
5128;DHT22;2582;48.770;9.190;2024-02-23T13:25:12;10.80;99.90
5128;DHT22;2582;48.770;9.190;2024-02-23T13:27:38;10.90;99.90
5128;DHT22;2582;48.770;9.190;2024-02-23T13:30:04;11.00;99.90
5128;DHT22;2582;48.770;9.190;2024-02-23T13:32:29;11.00;99.90
5128;DHT22;2582;48.770;9.190;2024-02-23T13:34:55;10.70;99.90
5128;DHT22;2582;48.770;9.190;2024-02-23T13:37:21;10.60;99.90
5128;DHT22;2582;48.770;9.190;2024-02-23T13:39:46;10.90;99.90
5128;DHT22;2582;48.770;9.190;2024-02-23T13:42:14;10.70;99.90
5128;DHT22;2582;48.770;9.190;2024-02-23T13:44:39;10.90;99.90
5128;DHT22;2582;48.770;9.190;2024-02-23T13:47:05;11.00;99.90
5128;DHT22;2582;48.770;9.190;2024-02-23T13:49:30;11.00;99.90
5128;DHT22;2582;48.770;9.190;2024-02-23T13:51:56;11.10;99.90
5128;DHT22;2582;48.770;9.190;2024-02-23T13:54:22;11.20;99.90
5128;DHT22;2582;48.770;9.190;2024-02-23T13:56:47;11.20;99.90
5128;DHT22;2582;48.770;9.190;2024-02-23T13:59:13;11.20;99.90
5128;DHT22;2582;48.770;9.190;2024-02-23T14:01:38;10.90;99.90
5128;DHT22;2582;48.770;9.190;2024-02-23T14:04:07;10.60;99.90
5128;DHT22;2582;48.770;9.190;2024-02-23T14:06:33;10.60;99.90
5128;DHT22;2582;48.770;9.190;2024-02-23T14:08:59;10.60;99.90
5128;DHT22;2582;48.770;9.190;2024-02-23T14:11:24;10.60;99.90
5128;DHT22;2582;48.770;9.190;2024-02-23T14:13:50;10.70;99.90
5128;DHT22;2582;48.770;9.190;2024-02-23T14:16:16;10.70;99.90
5128;DHT22;2582;48.770;9.190;2024-02-23T14:18:42;10.90;99.90
5128;DHT22;2582;48.770;9.190;2024-02-23T14:21:10;11.00;99.90
5128;DHT22;2582;48.770;9.190;2024-02-23T14:23:36;11.10;99.90
5128;DHT22;2582;48.770;9.190;2024-02-23T14:26:03;11.00;99.90
5128;DHT22;2582;48.770;9.190;2024-02-23T14:28:29;10.90;99.90
5128;DHT22;2582;48.770;9.190;2024-02-23T14:30:55;11.00;99.90
5128;DHT22;2582;48.770;9.190;2024-02-23T14:33:20;11.10;99.90
5128;DHT22;2582;48.770;9.190;2024-02-23T14:35:46;11.20;99.90
5128;DHT22;2582;48.770;9.190;2024-02-23T14:38:12;11.50;99.90
5128;DHT22;2582;48.770;9.190;2024-02-23T14:40:37;11.50;99.90
5128;DHT22;2582;48.770;9.190;2024-02-23T14:43:04;11.60;99.90
5128;DHT22;2582;48.770;9.190;2024-02-23T14:45:30;11.70;99.90
5128;DHT22;2582;48.770;9.190;2024-02-23T14:47:55;11.40;99.90
5128;DHT22;2582;48.770;9.190;2024-02-23T14:50:21;11.30;99.90
5128;DHT22;2582;48.770;9.190;2024-02-23T14:52:47;11.60;99.90
5128;DHT22;2582;48.770;9.190;2024-02-23T14:55:12;11.60;99.90
5128;DHT22;2582;48.770;9.190;2024-02-23T14:57:38;11.70;99.90
5128;DHT22;2582;48.770;9.190;2024-02-23T15:00:05;11.50;99.90
5128;DHT22;2582;48.770;9.190;2024-02-23T15:02:31;11.50;99.90
5128;DHT22;2582;48.770;9.190;2024-02-23T15:04:56;11.30;99.90
5128;DHT22;2582;48.770;9.190;2024-02-23T15:07:22;11.30;99.90
5128;DHT22;2582;48.770;9.190;2024-02-23T15:09:47;11.20;99.90
5128;DHT22;2582;48.770;9.190;2024-02-23T15:12:13;11.30;99.90
5128;DHT22;2582;48.770;9.190;2024-02-23T15:14:39;11.20;99.90
5128;DHT22;2582;48.770;9.190;2024-02-23T15:17:05;11.30;99.90
5128;DHT22;2582;48.770;9.190;2024-02-23T15:19:31;10.90;99.90
5128;DHT22;2582;48.770;9.190;2024-02-23T15:21:56;10.50;99.90
5128;DHT22;2582;48.770;9.190;2024-02-23T15:24:23;10.40;99.90
5128;DHT22;2582;48.770;9.190;2024-02-23T15:26:50;10.60;99.90
5128;DHT22;2582;48.770;9.190;2024-02-23T15:29:16;10.80;99.90
5128;DHT22;2582;48.770;9.190;2024-02-23T15:31:41;10.90;99.90
5128;DHT22;2582;48.770;9.190;2024-02-23T15:34:09;10.90;99.90
5128;DHT22;2582;48.770;9.190;2024-02-23T15:36:34;10.90;99.90
5128;DHT22;2582;48.770;9.190;2024-02-23T15:39:00;10.90;99.90
5128;DHT22;2582;48.770;9.190;2024-02-23T15:41:32;10.90;99.90
5128;DHT22;2582;48.770;9.190;2024-02-23T15:44:01;10.60;99.90
5128;DHT22;2582;48.770;9.190;2024-02-23T15:46:27;10.70;99.90
5128;DHT22;2582;48.770;9.190;2024-02-23T15:48:54;10.70;99.90
5128;DHT22;2582;48.770;9.190;2024-02-23T15:51:20;10.70;99.90
5128;DHT22;2582;48.770;9.190;2024-02-23T15:53:46;10.70;99.90
5128;DHT22;2582;48.770;9.190;2024-02-23T15:56:12;10.50;99.90
5128;DHT22;2582;48.770;9.190;2024-02-23T15:58:38;10.70;99.90
5128;DHT22;2582;48.770;9.190;2024-02-23T16:01:04;10.50;99.90
5128;DHT22;2582;48.770;9.190;2024-02-23T16:03:30;10.50;99.90
5128;DHT22;2582;48.770;9.190;2024-02-23T16:05:56;10.80;99.90
5128;DHT22;2582;48.770;9.190;2024-02-23T16:08:47;11.00;99.90
5128;DHT22;2582;48.770;9.190;2024-02-23T16:11:14;10.90;99.90